sensor_id;sensor_type;location;lat;lon;timestamp;P1;durP1;ratioP1;P2;durP2;ratioP2
34019;SDS011;20895;51.034;3.742;2022-07-06T00:01:19;6.82;;;3.15;;
34019;SDS011;20895;51.034;3.742;2022-07-06T00:03:45;7.03;;;3.60;;
34019;SDS011;20895;51.034;3.742;2022-07-06T00:06:10;5.25;;;3.72;;
34019;SDS011;20895;51.034;3.742;2022-07-06T00:08:35;8.63;;;3.83;;
34019;SDS011;20895;51.034;3.742;2022-07-06T00:11:01;9.32;;;3.08;;
34019;SDS011;20895;51.034;3.742;2022-07-06T00:13:26;8.00;;;4.05;;
34019;SDS011;20895;51.034;3.742;2022-07-06T00:15:52;6.15;;;3.55;;
34019;SDS011;20895;51.034;3.742;2022-07-06T00:18:17;5.47;;;3.42;;
34019;SDS011;20895;51.034;3.742;2022-07-06T00:20:42;8.75;;;3.40;;
34019;SDS011;20895;51.034;3.742;2022-07-06T00:23:07;5.65;;;3.58;;
34019;SDS011;20895;51.034;3.742;2022-07-06T00:25:33;9.10;;;3.85;;
34019;SDS011;20895;51.034;3.742;2022-07-06T00:27:58;6.78;;;3.30;;
34019;SDS011;20895;51.034;3.742;2022-07-06T00:30:23;7.93;;;3.13;;
34019;SDS011;20895;51.034;3.742;2022-07-06T00:32:48;5.60;;;3.33;;
34019;SDS011;20895;51.034;3.742;2022-07-06T00:35:14;6.22;;;3.72;;
34019;SDS011;20895;51.034;3.742;2022-07-06T00:37:39;7.68;;;4.25;;
34019;SDS011;20895;51.034;3.742;2022-07-06T00:40:05;8.57;;;4.25;;
34019;SDS011;20895;51.034;3.742;2022-07-06T00:42:37;9.90;;;4.00;;
34019;SDS011;20895;51.034;3.742;2022-07-06T00:45:03;6.38;;;3.83;;
34019;SDS011;20895;51.034;3.742;2022-07-06T00:47:28;5.90;;;4.70;;
34019;SDS011;20895;51.034;3.742;2022-07-06T00:49:54;8.27;;;3.65;;
34019;SDS011;20895;51.034;3.742;2022-07-06T00:52:38;6.47;;;4.03;;
34019;SDS011;20895;51.034;3.742;2022-07-06T00:55:03;6.03;;;3.45;;
34019;SDS011;20895;51.034;3.742;2022-07-06T00:57:29;6.40;;;3.35;;
34019;SDS011;20895;51.034;3.742;2022-07-06T00:59:54;7.32;;;3.60;;
34019;SDS011;20895;51.034;3.742;2022-07-06T01:02:20;6.55;;;2.88;;
34019;SDS011;20895;51.034;3.742;2022-07-06T01:04:47;7.18;;;3.72;;
34019;SDS011;20895;51.034;3.742;2022-07-06T01:07:12;5.47;;;3.63;;
34019;SDS011;20895;51.034;3.742;2022-07-06T01:09:38;6.15;;;3.47;;
34019;SDS011;20895;51.034;3.742;2022-07-06T01:12:03;7.15;;;3.63;;
34019;SDS011;20895;51.034;3.742;2022-07-06T01:14:29;5.75;;;3.05;;
34019;SDS011;20895;51.034;3.742;2022-07-06T01:16:54;7.35;;;3.88;;
34019;SDS011;20895;51.034;3.742;2022-07-06T01:19:19;5.95;;;3.58;;
34019;SDS011;20895;51.034;3.742;2022-07-06T01:21:45;6.57;;;3.22;;
34019;SDS011;20895;51.034;3.742;2022-07-06T01:24:10;5.20;;;3.50;;
34019;SDS011;20895;51.034;3.742;2022-07-06T01:26:35;5.63;;;2.85;;
34019;SDS011;20895;51.034;3.742;2022-07-06T01:29:01;6.75;;;3.33;;
34019;SDS011;20895;51.034;3.742;2022-07-06T01:31:26;6.43;;;3.55;;
34019;SDS011;20895;51.034;3.742;2022-07-06T01:33:53;7.22;;;4.30;;
34019;SDS011;20895;51.034;3.742;2022-07-06T01:36:19;6.25;;;3.85;;
34019;SDS011;20895;51.034;3.742;2022-07-06T01:38:48;6.10;;;3.70;;
34019;SDS011;20895;51.034;3.742;2022-07-06T01:41:13;6.57;;;3.63;;
34019;SDS011;20895;51.034;3.742;2022-07-06T01:43:39;8.65;;;4.80;;
34019;SDS011;20895;51.034;3.742;2022-07-06T01:46:04;10.60;;;3.67;;
34019;SDS011;20895;51.034;3.742;2022-07-06T01:48:29;6.07;;;3.95;;
34019;SDS011;20895;51.034;3.742;2022-07-06T01:50:55;5.07;;;3.28;;
34019;SDS011;20895;51.034;3.742;2022-07-06T01:53:20;9.20;;;3.50;;
34019;SDS011;20895;51.034;3.742;2022-07-06T01:55:45;6.28;;;3.67;;
34019;SDS011;20895;51.034;3.742;2022-07-06T01:58:10;5.40;;;3.22;;
34019;SDS011;20895;51.034;3.742;2022-07-06T02:00:36;6.85;;;3.97;;
34019;SDS011;20895;51.034;3.742;2022-07-06T02:03:01;7.43;;;3.40;;
34019;SDS011;20895;51.034;3.742;2022-07-06T02:05:26;11.32;;;4.60;;
34019;SDS011;20895;51.034;3.742;2022-07-06T02:07:51;6.50;;;3.95;;
34019;SDS011;20895;51.034;3.742;2022-07-06T02:10:16;9.02;;;4.00;;
34019;SDS011;20895;51.034;3.742;2022-07-06T02:12:42;7.55;;;3.70;;
34019;SDS011;20895;51.034;3.742;2022-07-06T02:15:07;5.75;;;3.17;;
34019;SDS011;20895;51.034;3.742;2022-07-06T02:17:33;6.60;;;3.28;;
34019;SDS011;20895;51.034;3.742;2022-07-06T02:19:58;12.65;;;3.65;;
34019;SDS011;20895;51.034;3.742;2022-07-06T02:22:23;6.35;;;3.95;;
34019;SDS011;20895;51.034;3.742;2022-07-06T02:24:48;6.57;;;3.38;;
34019;SDS011;20895;51.034;3.742;2022-07-06T02:27:13;6.25;;;3.78;;
34019;SDS011;20895;51.034;3.742;2022-07-06T02:29:39;6.55;;;3.53;;
34019;SDS011;20895;51.034;3.742;2022-07-06T02:32:04;8.07;;;3.80;;
34019;SDS011;20895;51.034;3.742;2022-07-06T02:34:29;6.97;;;3.53;;
34019;SDS011;20895;51.034;3.742;2022-07-06T02:36:54;8.23;;;3.78;;
34019;SDS011;20895;51.034;3.742;2022-07-06T02:39:20;6.32;;;3.83;;
34019;SDS011;20895;51.034;3.742;2022-07-06T02:41:45;10.10;;;4.10;;
34019;SDS011;20895;51.034;3.742;2022-07-06T02:44:10;5.50;;;3.55;;
34019;SDS011;20895;51.034;3.742;2022-07-06T02:46:35;7.60;;;4.00;;
34019;SDS011;20895;51.034;3.742;2022-07-06T02:49:01;10.52;;;4.25;;
34019;SDS011;20895;51.034;3.742;2022-07-06T02:51:26;9.02;;;4.55;;
34019;SDS011;20895;51.034;3.742;2022-07-06T02:53:51;7.45;;;4.10;;
34019;SDS011;20895;51.034;3.742;2022-07-06T02:56:16;9.50;;;4.20;;
34019;SDS011;20895;51.034;3.742;2022-07-06T02:58:42;8.10;;;4.40;;
34019;SDS011;20895;51.034;3.742;2022-07-06T03:01:07;10.10;;;4.38;;
34019;SDS011;20895;51.034;3.742;2022-07-06T03:03:32;11.02;;;5.55;;
34019;SDS011;20895;51.034;3.742;2022-07-06T03:05:57;6.65;;;4.30;;
34019;SDS011;20895;51.034;3.742;2022-07-06T03:08:23;6.93;;;4.10;;
34019;SDS011;20895;51.034;3.742;2022-07-06T03:10:48;9.48;;;4.78;;
34019;SDS011;20895;51.034;3.742;2022-07-06T03:13:13;8.65;;;4.95;;
34019;SDS011;20895;51.034;3.742;2022-07-06T03:15:38;7.45;;;4.82;;
34019;SDS011;20895;51.034;3.742;2022-07-06T03:18:04;8.85;;;4.82;;
34019;SDS011;20895;51.034;3.742;2022-07-06T03:20:29;9.45;;;4.90;;
34019;SDS011;20895;51.034;3.742;2022-07-06T03:22:54;7.88;;;4.25;;
34019;SDS011;20895;51.034;3.742;2022-07-06T03:25:19;8.68;;;4.75;;
34019;SDS011;20895;51.034;3.742;2022-07-06T03:27:45;8.98;;;5.18;;
34019;SDS011;20895;51.034;3.742;2022-07-06T03:30:10;8.18;;;4.72;;
34019;SDS011;20895;51.034;3.742;2022-07-06T03:32:35;7.05;;;4.53;;
34019;SDS011;20895;51.034;3.742;2022-07-06T03:35:00;6.82;;;4.28;;
34019;SDS011;20895;51.034;3.742;2022-07-06T03:37:26;8.82;;;3.97;;
34019;SDS011;20895;51.034;3.742;2022-07-06T03:39:51;7.68;;;4.35;;
34019;SDS011;20895;51.034;3.742;2022-07-06T03:42:16;8.98;;;5.43;;
34019;SDS011;20895;51.034;3.742;2022-07-06T03:44:41;8.50;;;5.13;;
34019;SDS011;20895;51.034;3.742;2022-07-06T03:47:07;11.23;;;5.57;;
34019;SDS011;20895;51.034;3.742;2022-07-06T03:49:32;8.38;;;6.00;;
34019;SDS011;20895;51.034;3.742;2022-07-06T03:51:57;9.52;;;5.78;;
34019;SDS011;20895;51.034;3.742;2022-07-06T03:54:22;9.38;;;6.55;;
34019;SDS011;20895;51.034;3.742;2022-07-06T03:56:47;7.75;;;6.32;;
34019;SDS011;20895;51.034;3.742;2022-07-06T03:59:13;8.07;;;6.80;;
34019;SDS011;20895;51.034;3.742;2022-07-06T04:01:39;12.15;;;7.40;;
34019;SDS011;20895;51.034;3.742;2022-07-06T04:04:04;8.95;;;5.93;;
34019;SDS011;20895;51.034;3.742;2022-07-06T04:06:29;9.77;;;5.82;;
34019;SDS011;20895;51.034;3.742;2022-07-06T04:08:55;9.13;;;5.93;;
34019;SDS011;20895;51.034;3.742;2022-07-06T04:11:20;9.90;;;6.50;;
34019;SDS011;20895;51.034;3.742;2022-07-06T04:13:45;8.90;;;6.60;;
34019;SDS011;20895;51.034;3.742;2022-07-06T04:16:11;12.52;;;6.55;;
34019;SDS011;20895;51.034;3.742;2022-07-06T04:18:36;11.73;;;6.88;;
34019;SDS011;20895;51.034;3.742;2022-07-06T04:21:01;8.65;;;5.78;;
34019;SDS011;20895;51.034;3.742;2022-07-06T04:23:27;9.68;;;6.07;;
34019;SDS011;20895;51.034;3.742;2022-07-06T04:25:52;11.88;;;6.45;;
34019;SDS011;20895;51.034;3.742;2022-07-06T04:28:18;10.65;;;6.15;;
34019;SDS011;20895;51.034;3.742;2022-07-06T04:30:43;8.13;;;6.28;;
34019;SDS011;20895;51.034;3.742;2022-07-06T04:33:08;8.10;;;6.30;;
34019;SDS011;20895;51.034;3.742;2022-07-06T04:35:33;10.02;;;5.97;;
34019;SDS011;20895;51.034;3.742;2022-07-06T04:37:59;6.72;;;5.93;;
34019;SDS011;20895;51.034;3.742;2022-07-06T04:40:24;10.23;;;6.70;;
34019;SDS011;20895;51.034;3.742;2022-07-06T04:42:49;10.82;;;6.93;;
34019;SDS011;20895;51.034;3.742;2022-07-06T04:45:15;9.82;;;6.97;;
34019;SDS011;20895;51.034;3.742;2022-07-06T04:47:40;15.00;;;6.95;;
34019;SDS011;20895;51.034;3.742;2022-07-06T04:50:05;8.68;;;6.40;;
34019;SDS011;20895;51.034;3.742;2022-07-06T04:52:31;9.68;;;6.57;;
34019;SDS011;20895;51.034;3.742;2022-07-06T04:54:56;14.73;;;7.15;;
34019;SDS011;20895;51.034;3.742;2022-07-06T04:57:21;10.75;;;6.95;;
34019;SDS011;20895;51.034;3.742;2022-07-06T04:59:47;13.85;;;7.63;;
34019;SDS011;20895;51.034;3.742;2022-07-06T05:02:12;10.25;;;7.03;;
34019;SDS011;20895;51.034;3.742;2022-07-06T05:04:37;11.38;;;6.70;;
34019;SDS011;20895;51.034;3.742;2022-07-06T05:07:03;14.35;;;7.53;;
34019;SDS011;20895;51.034;3.742;2022-07-06T05:09:28;10.52;;;7.30;;
34019;SDS011;20895;51.034;3.742;2022-07-06T05:11:53;8.57;;;6.95;;
34019;SDS011;20895;51.034;3.742;2022-07-06T05:14:18;14.63;;;7.25;;
34019;SDS011;20895;51.034;3.742;2022-07-06T05:16:44;9.57;;;7.03;;
34019;SDS011;20895;51.034;3.742;2022-07-06T05:19:09;10.95;;;7.60;;
34019;SDS011;20895;51.034;3.742;2022-07-06T05:21:34;8.25;;;6.78;;
34019;SDS011;20895;51.034;3.742;2022-07-06T05:23:59;10.68;;;7.10;;
34019;SDS011;20895;51.034;3.742;2022-07-06T05:26:25;9.27;;;7.13;;
34019;SDS011;20895;51.034;3.742;2022-07-06T05:28:50;10.75;;;7.88;;
34019;SDS011;20895;51.034;3.742;2022-07-06T05:31:15;13.48;;;7.30;;
34019;SDS011;20895;51.034;3.742;2022-07-06T05:33:41;17.83;;;7.32;;
34019;SDS011;20895;51.034;3.742;2022-07-06T05:36:06;14.48;;;7.85;;
34019;SDS011;20895;51.034;3.742;2022-07-06T05:38:32;11.30;;;7.80;;
34019;SDS011;20895;51.034;3.742;2022-07-06T05:40:57;12.93;;;7.68;;
34019;SDS011;20895;51.034;3.742;2022-07-06T05:43:23;11.25;;;7.72;;
34019;SDS011;20895;51.034;3.742;2022-07-06T05:45:48;13.90;;;9.68;;
34019;SDS011;20895;51.034;3.742;2022-07-06T05:48:13;11.32;;;7.85;;
34019;SDS011;20895;51.034;3.742;2022-07-06T05:50:57;16.10;;;7.72;;
34019;SDS011;20895;51.034;3.742;2022-07-06T05:53:23;12.90;;;8.57;;
34019;SDS011;20895;51.034;3.742;2022-07-06T05:55:48;11.10;;;7.60;;
34019;SDS011;20895;51.034;3.742;2022-07-06T05:58:13;15.20;;;7.15;;
34019;SDS011;20895;51.034;3.742;2022-07-06T06:00:39;16.85;;;7.78;;
34019;SDS011;20895;51.034;3.742;2022-07-06T06:03:04;18.50;;;9.35;;
34019;SDS011;20895;51.034;3.742;2022-07-06T06:05:29;9.18;;;7.82;;
34019;SDS011;20895;51.034;3.742;2022-07-06T06:07:54;15.02;;;7.72;;
34019;SDS011;20895;51.034;3.742;2022-07-06T06:10:20;13.18;;;8.07;;
34019;SDS011;20895;51.034;3.742;2022-07-06T06:12:46;11.75;;;7.13;;
34019;SDS011;20895;51.034;3.742;2022-07-06T06:15:12;10.88;;;7.15;;
34019;SDS011;20895;51.034;3.742;2022-07-06T06:17:38;14.05;;;7.32;;
34019;SDS011;20895;51.034;3.742;2022-07-06T06:20:07;10.27;;;7.13;;
34019;SDS011;20895;51.034;3.742;2022-07-06T06:22:48;21.05;;;8.30;;
34019;SDS011;20895;51.034;3.742;2022-07-06T06:25:14;12.68;;;6.30;;
34019;SDS011;20895;51.034;3.742;2022-07-06T06:27:40;11.88;;;6.72;;
34019;SDS011;20895;51.034;3.742;2022-07-06T06:30:05;11.95;;;7.70;;
34019;SDS011;20895;51.034;3.742;2022-07-06T06:32:31;9.55;;;6.57;;
34019;SDS011;20895;51.034;3.742;2022-07-06T06:34:56;10.27;;;6.20;;
34019;SDS011;20895;51.034;3.742;2022-07-06T06:37:21;14.27;;;6.35;;
34019;SDS011;20895;51.034;3.742;2022-07-06T06:39:46;11.00;;;6.05;;
34019;SDS011;20895;51.034;3.742;2022-07-06T06:42:12;10.15;;;6.18;;
34019;SDS011;20895;51.034;3.742;2022-07-06T06:44:37;8.68;;;5.95;;
34019;SDS011;20895;51.034;3.742;2022-07-06T06:47:02;9.90;;;5.18;;
34019;SDS011;20895;51.034;3.742;2022-07-06T06:49:27;6.88;;;5.00;;
34019;SDS011;20895;51.034;3.742;2022-07-06T06:51:53;9.60;;;4.88;;
34019;SDS011;20895;51.034;3.742;2022-07-06T06:54:18;7.88;;;4.88;;
34019;SDS011;20895;51.034;3.742;2022-07-06T06:56:43;9.20;;;4.95;;
34019;SDS011;20895;51.034;3.742;2022-07-06T06:59:09;5.45;;;3.90;;
34019;SDS011;20895;51.034;3.742;2022-07-06T07:01:34;6.85;;;4.13;;
34019;SDS011;20895;51.034;3.742;2022-07-06T07:03:59;9.43;;;4.15;;
34019;SDS011;20895;51.034;3.742;2022-07-06T07:06:25;7.97;;;2.95;;
34019;SDS011;20895;51.034;3.742;2022-07-06T07:08:50;9.65;;;4.53;;
34019;SDS011;20895;51.034;3.742;2022-07-06T07:11:15;5.35;;;3.25;;
34019;SDS011;20895;51.034;3.742;2022-07-06T07:13:41;7.75;;;4.32;;
34019;SDS011;20895;51.034;3.742;2022-07-06T07:16:06;5.25;;;3.75;;
34019;SDS011;20895;51.034;3.742;2022-07-06T07:18:31;7.35;;;4.25;;
34019;SDS011;20895;51.034;3.742;2022-07-06T07:20:56;7.70;;;3.97;;
34019;SDS011;20895;51.034;3.742;2022-07-06T07:23:22;6.28;;;3.60;;
34019;SDS011;20895;51.034;3.742;2022-07-06T07:25:47;7.72;;;3.22;;
34019;SDS011;20895;51.034;3.742;2022-07-06T07:28:12;6.82;;;3.13;;
34019;SDS011;20895;51.034;3.742;2022-07-06T07:30:38;7.15;;;3.33;;
34019;SDS011;20895;51.034;3.742;2022-07-06T07:33:03;7.13;;;3.30;;
34019;SDS011;20895;51.034;3.742;2022-07-06T07:35:28;9.85;;;3.47;;
34019;SDS011;20895;51.034;3.742;2022-07-06T07:37:54;8.45;;;3.80;;
34019;SDS011;20895;51.034;3.742;2022-07-06T07:40:19;4.70;;;2.65;;
34019;SDS011;20895;51.034;3.742;2022-07-06T07:42:44;10.15;;;3.20;;
34019;SDS011;20895;51.034;3.742;2022-07-06T07:45:10;6.18;;;2.63;;
34019;SDS011;20895;51.034;3.742;2022-07-06T07:47:35;7.28;;;3.78;;
34019;SDS011;20895;51.034;3.742;2022-07-06T07:50:01;6.82;;;2.38;;
34019;SDS011;20895;51.034;3.742;2022-07-06T07:52:26;2.95;;;2.03;;
34019;SDS011;20895;51.034;3.742;2022-07-06T07:54:51;5.32;;;2.72;;
34019;SDS011;20895;51.034;3.742;2022-07-06T07:57:17;5.22;;;2.58;;
34019;SDS011;20895;51.034;3.742;2022-07-06T07:59:42;5.72;;;2.42;;
34019;SDS011;20895;51.034;3.742;2022-07-06T08:02:08;7.25;;;2.80;;
34019;SDS011;20895;51.034;3.742;2022-07-06T08:04:33;7.10;;;2.60;;
34019;SDS011;20895;51.034;3.742;2022-07-06T08:06:58;6.15;;;2.63;;
34019;SDS011;20895;51.034;3.742;2022-07-06T08:09:24;5.30;;;2.50;;
34019;SDS011;20895;51.034;3.742;2022-07-06T08:11:49;7.55;;;2.78;;
34019;SDS011;20895;51.034;3.742;2022-07-06T08:14:14;5.15;;;2.42;;
34019;SDS011;20895;51.034;3.742;2022-07-06T08:16:41;9.60;;;3.13;;
34019;SDS011;20895;51.034;3.742;2022-07-06T08:19:07;7.95;;;3.67;;
34019;SDS011;20895;51.034;3.742;2022-07-06T08:21:32;8.05;;;3.53;;
34019;SDS011;20895;51.034;3.742;2022-07-06T08:23:57;7.87;;;3.47;;
34019;SDS011;20895;51.034;3.742;2022-07-06T08:26:25;6.25;;;2.95;;
34019;SDS011;20895;51.034;3.742;2022-07-06T08:28:50;4.90;;;2.80;;
34019;SDS011;20895;51.034;3.742;2022-07-06T08:31:15;8.02;;;3.53;;
34019;SDS011;20895;51.034;3.742;2022-07-06T08:33:40;8.07;;;3.10;;
34019;SDS011;20895;51.034;3.742;2022-07-06T08:36:06;5.75;;;3.08;;
34019;SDS011;20895;51.034;3.742;2022-07-06T08:38:31;9.50;;;3.65;;
34019;SDS011;20895;51.034;3.742;2022-07-06T08:40:56;7.35;;;3.08;;
34019;SDS011;20895;51.034;3.742;2022-07-06T08:43:22;6.35;;;2.90;;
34019;SDS011;20895;51.034;3.742;2022-07-06T08:45:49;6.65;;;3.17;;
34019;SDS011;20895;51.034;3.742;2022-07-06T08:48:15;5.22;;;2.85;;
34019;SDS011;20895;51.034;3.742;2022-07-06T08:50:41;9.10;;;2.95;;
34019;SDS011;20895;51.034;3.742;2022-07-06T08:53:07;8.25;;;2.70;;
34019;SDS011;20895;51.034;3.742;2022-07-06T08:55:32;5.30;;;2.83;;
34019;SDS011;20895;51.034;3.742;2022-07-06T08:57:57;6.45;;;2.85;;
34019;SDS011;20895;51.034;3.742;2022-07-06T09:00:23;5.05;;;2.53;;
34019;SDS011;20895;51.034;3.742;2022-07-06T09:02:50;6.53;;;2.70;;
34019;SDS011;20895;51.034;3.742;2022-07-06T09:05:16;7.72;;;2.63;;
34019;SDS011;20895;51.034;3.742;2022-07-06T09:07:41;9.68;;;2.35;;
34019;SDS011;20895;51.034;3.742;2022-07-06T09:10:08;9.85;;;2.50;;
34019;SDS011;20895;51.034;3.742;2022-07-06T09:12:34;6.93;;;2.30;;
34019;SDS011;20895;51.034;3.742;2022-07-06T09:14:59;8.13;;;2.83;;
34019;SDS011;20895;51.034;3.742;2022-07-06T09:17:26;9.60;;;2.63;;
34019;SDS011;20895;51.034;3.742;2022-07-06T09:19:52;6.55;;;2.22;;
34019;SDS011;20895;51.034;3.742;2022-07-06T09:22:27;4.75;;;2.50;;
34019;SDS011;20895;51.034;3.742;2022-07-06T09:24:53;6.15;;;3.10;;
34019;SDS011;20895;51.034;3.742;2022-07-06T09:27:18;8.75;;;3.05;;
34019;SDS011;20895;51.034;3.742;2022-07-06T09:29:43;6.90;;;2.22;;
34019;SDS011;20895;51.034;3.742;2022-07-06T09:32:09;5.50;;;2.33;;
34019;SDS011;20895;51.034;3.742;2022-07-06T09:34:41;4.70;;;2.23;;
34019;SDS011;20895;51.034;3.742;2022-07-06T09:37:07;4.95;;;2.08;;
34019;SDS011;20895;51.034;3.742;2022-07-06T09:39:32;5.03;;;2.55;;
34019;SDS011;20895;51.034;3.742;2022-07-06T09:41:58;3.28;;;2.10;;
34019;SDS011;20895;51.034;3.742;2022-07-06T09:44:28;10.60;;;2.70;;
34019;SDS011;20895;51.034;3.742;2022-07-06T09:46:58;5.18;;;2.20;;
34019;SDS011;20895;51.034;3.742;2022-07-06T09:49:24;5.00;;;2.20;;
34019;SDS011;20895;51.034;3.742;2022-07-06T09:51:51;8.38;;;2.30;;
34019;SDS011;20895;51.034;3.742;2022-07-06T09:54:16;5.97;;;2.60;;
34019;SDS011;20895;51.034;3.742;2022-07-06T09:56:43;8.63;;;3.22;;
34019;SDS011;20895;51.034;3.742;2022-07-06T09:59:08;9.70;;;2.33;;
34019;SDS011;20895;51.034;3.742;2022-07-06T10:01:34;7.10;;;2.88;;
34019;SDS011;20895;51.034;3.742;2022-07-06T10:04:00;4.30;;;1.88;;
34019;SDS011;20895;51.034;3.742;2022-07-06T10:06:25;6.18;;;2.03;;
34019;SDS011;20895;51.034;3.742;2022-07-06T10:08:50;5.68;;;2.28;;
34019;SDS011;20895;51.034;3.742;2022-07-06T10:11:16;6.47;;;2.45;;
34019;SDS011;20895;51.034;3.742;2022-07-06T10:13:42;4.18;;;2.10;;
34019;SDS011;20895;51.034;3.742;2022-07-06T10:16:07;4.45;;;2.10;;
34019;SDS011;20895;51.034;3.742;2022-07-06T10:18:32;5.50;;;2.20;;
34019;SDS011;20895;51.034;3.742;2022-07-06T10:20:58;5.55;;;2.75;;
34019;SDS011;20895;51.034;3.742;2022-07-06T10:23:24;7.50;;;2.45;;
34019;SDS011;20895;51.034;3.742;2022-07-06T10:25:50;6.03;;;2.47;;
34019;SDS011;20895;51.034;3.742;2022-07-06T10:28:16;4.20;;;2.20;;
34019;SDS011;20895;51.034;3.742;2022-07-06T10:30:43;4.18;;;1.80;;
34019;SDS011;20895;51.034;3.742;2022-07-06T10:33:08;7.13;;;2.45;;
34019;SDS011;20895;51.034;3.742;2022-07-06T10:35:34;8.65;;;2.40;;
34019;SDS011;20895;51.034;3.742;2022-07-06T10:38:03;5.00;;;2.40;;
34019;SDS011;20895;51.034;3.742;2022-07-06T10:40:36;3.88;;;1.83;;
34019;SDS011;20895;51.034;3.742;2022-07-06T10:43:20;3.60;;;1.70;;
34019;SDS011;20895;51.034;3.742;2022-07-06T10:50:36;5.67;;;2.27;;
34019;SDS011;20895;51.034;3.742;2022-07-06T10:53:01;6.32;;;2.25;;
34019;SDS011;20895;51.034;3.742;2022-07-06T10:55:36;5.60;;;2.60;;
34019;SDS011;20895;51.034;3.742;2022-07-06T10:58:02;4.95;;;2.13;;
34019;SDS011;20895;51.034;3.742;2022-07-06T11:03:34;3.75;;;2.00;;
34019;SDS011;20895;51.034;3.742;2022-07-06T11:05:58;7.65;;;3.70;;
34019;SDS011;20895;51.034;3.742;2022-07-06T11:08:40;7.40;;;2.17;;
34019;SDS011;20895;51.034;3.742;2022-07-06T11:11:22;5.95;;;2.35;;
34019;SDS011;20895;51.034;3.742;2022-07-06T11:13:51;4.75;;;2.17;;
34019;SDS011;20895;51.034;3.742;2022-07-06T11:16:17;3.70;;;1.88;;
34019;SDS011;20895;51.034;3.742;2022-07-06T11:18:46;6.20;;;2.72;;
34019;SDS011;20895;51.034;3.742;2022-07-06T11:23:40;7.75;;;2.75;;
34019;SDS011;20895;51.034;3.742;2022-07-06T11:26:06;6.13;;;2.33;;
34019;SDS011;20895;51.034;3.742;2022-07-06T11:28:31;7.22;;;3.22;;
34019;SDS011;20895;51.034;3.742;2022-07-06T11:30:56;3.67;;;1.98;;
34019;SDS011;20895;51.034;3.742;2022-07-06T11:33:31;7.97;;;2.25;;
34019;SDS011;20895;51.034;3.742;2022-07-06T11:38:40;4.10;;;1.75;;
34019;SDS011;20895;51.034;3.742;2022-07-06T11:41:06;8.23;;;2.00;;
34019;SDS011;20895;51.034;3.742;2022-07-06T11:43:31;5.78;;;1.60;;
34019;SDS011;20895;51.034;3.742;2022-07-06T11:45:57;4.78;;;1.65;;
34019;SDS011;20895;51.034;3.742;2022-07-06T11:48:22;4.38;;;1.85;;
34019;SDS011;20895;51.034;3.742;2022-07-06T11:51:00;4.10;;;1.43;;
34019;SDS011;20895;51.034;3.742;2022-07-06T11:53:25;4.03;;;2.03;;
34019;SDS011;20895;51.034;3.742;2022-07-06T11:55:51;4.70;;;1.88;;
34019;SDS011;20895;51.034;3.742;2022-07-06T11:58:18;5.22;;;1.95;;
34019;SDS011;20895;51.034;3.742;2022-07-06T12:00:50;6.22;;;2.42;;
34019;SDS011;20895;51.034;3.742;2022-07-06T12:03:27;4.43;;;1.92;;
34019;SDS011;20895;51.034;3.742;2022-07-06T12:05:52;5.38;;;1.77;;
34019;SDS011;20895;51.034;3.742;2022-07-06T12:08:18;4.68;;;1.65;;
34019;SDS011;20895;51.034;3.742;2022-07-06T12:10:43;2.83;;;1.87;;
34019;SDS011;20895;51.034;3.742;2022-07-06T12:13:08;4.05;;;2.15;;
34019;SDS011;20895;51.034;3.742;2022-07-06T12:15:33;5.82;;;2.03;;
34019;SDS011;20895;51.034;3.742;2022-07-06T12:17:59;5.73;;;2.40;;
34019;SDS011;20895;51.034;3.742;2022-07-06T12:20:24;4.90;;;1.77;;
34019;SDS011;20895;51.034;3.742;2022-07-06T12:23:00;7.22;;;1.95;;
34019;SDS011;20895;51.034;3.742;2022-07-06T12:25:29;3.72;;;1.90;;
34019;SDS011;20895;51.034;3.742;2022-07-06T12:27:54;2.92;;;2.00;;
34019;SDS011;20895;51.034;3.742;2022-07-06T12:30:19;7.70;;;2.55;;
34019;SDS011;20895;51.034;3.742;2022-07-06T12:32:45;5.10;;;2.00;;
34019;SDS011;20895;51.034;3.742;2022-07-06T12:35:10;6.17;;;1.70;;
34019;SDS011;20895;51.034;3.742;2022-07-06T12:37:36;4.53;;;1.80;;
34019;SDS011;20895;51.034;3.742;2022-07-06T12:40:02;6.68;;;2.17;;
34019;SDS011;20895;51.034;3.742;2022-07-06T12:42:29;12.98;;;6.30;;
34019;SDS011;20895;51.034;3.742;2022-07-06T12:44:55;4.65;;;2.03;;
34019;SDS011;20895;51.034;3.742;2022-07-06T12:47:21;3.87;;;2.20;;
34019;SDS011;20895;51.034;3.742;2022-07-06T12:49:48;4.63;;;2.10;;
34019;SDS011;20895;51.034;3.742;2022-07-06T12:52:14;5.70;;;2.20;;
34019;SDS011;20895;51.034;3.742;2022-07-06T12:59:40;9.27;;;2.55;;
34019;SDS011;20895;51.034;3.742;2022-07-06T13:02:06;7.88;;;2.50;;
34019;SDS011;20895;51.034;3.742;2022-07-06T13:04:33;7.35;;;2.60;;
34019;SDS011;20895;51.034;3.742;2022-07-06T13:06:59;7.15;;;2.38;;
34019;SDS011;20895;51.034;3.742;2022-07-06T13:09:24;15.75;;;8.75;;
34019;SDS011;20895;51.034;3.742;2022-07-06T13:11:50;7.38;;;3.25;;
34019;SDS011;20895;51.034;3.742;2022-07-06T13:14:15;7.10;;;3.08;;
34019;SDS011;20895;51.034;3.742;2022-07-06T13:16:41;7.40;;;3.05;;
34019;SDS011;20895;51.034;3.742;2022-07-06T13:19:07;7.30;;;3.25;;
34019;SDS011;20895;51.034;3.742;2022-07-06T13:21:32;6.82;;;3.53;;
34019;SDS011;20895;51.034;3.742;2022-07-06T13:23:58;7.85;;;2.92;;
34019;SDS011;20895;51.034;3.742;2022-07-06T13:26:23;8.13;;;3.13;;
34019;SDS011;20895;51.034;3.742;2022-07-06T13:28:48;6.15;;;3.53;;
34019;SDS011;20895;51.034;3.742;2022-07-06T13:31:13;5.75;;;2.75;;
34019;SDS011;20895;51.034;3.742;2022-07-06T13:33:39;8.13;;;3.60;;
34019;SDS011;20895;51.034;3.742;2022-07-06T13:36:04;7.38;;;2.97;;
34019;SDS011;20895;51.034;3.742;2022-07-06T13:38:29;9.45;;;4.47;;
34019;SDS011;20895;51.034;3.742;2022-07-06T13:40:55;5.13;;;3.28;;
34019;SDS011;20895;51.034;3.742;2022-07-06T13:43:20;6.22;;;3.33;;
34019;SDS011;20895;51.034;3.742;2022-07-06T13:45:46;7.43;;;4.05;;
34019;SDS011;20895;51.034;3.742;2022-07-06T13:48:12;8.00;;;3.60;;
34019;SDS011;20895;51.034;3.742;2022-07-06T13:50:37;9.38;;;4.93;;
34019;SDS011;20895;51.034;3.742;2022-07-06T13:53:03;9.27;;;4.25;;
34019;SDS011;20895;51.034;3.742;2022-07-06T13:55:29;6.25;;;3.47;;
34019;SDS011;20895;51.034;3.742;2022-07-06T13:57:54;7.88;;;4.07;;
34019;SDS011;20895;51.034;3.742;2022-07-06T14:00:19;4.47;;;3.38;;
34019;SDS011;20895;51.034;3.742;2022-07-06T14:02:45;5.18;;;3.47;;
34019;SDS011;20895;51.034;3.742;2022-07-06T14:05:10;8.13;;;3.70;;
34019;SDS011;20895;51.034;3.742;2022-07-06T14:07:35;8.77;;;3.47;;
34019;SDS011;20895;51.034;3.742;2022-07-06T14:10:01;7.35;;;3.83;;
34019;SDS011;20895;51.034;3.742;2022-07-06T14:12:26;6.55;;;3.40;;
34019;SDS011;20895;51.034;3.742;2022-07-06T14:14:52;5.85;;;3.20;;
34019;SDS011;20895;51.034;3.742;2022-07-06T14:17:17;6.78;;;3.30;;
34019;SDS011;20895;51.034;3.742;2022-07-06T14:19:42;5.63;;;3.20;;
34019;SDS011;20895;51.034;3.742;2022-07-06T14:22:08;11.40;;;4.38;;
34019;SDS011;20895;51.034;3.742;2022-07-06T14:24:33;7.13;;;3.28;;
34019;SDS011;20895;51.034;3.742;2022-07-06T14:26:59;9.32;;;3.60;;
34019;SDS011;20895;51.034;3.742;2022-07-06T14:29:25;6.80;;;3.92;;
34019;SDS011;20895;51.034;3.742;2022-07-06T14:31:50;8.15;;;3.13;;
34019;SDS011;20895;51.034;3.742;2022-07-06T14:34:16;6.55;;;2.92;;
34019;SDS011;20895;51.034;3.742;2022-07-06T14:36:41;6.10;;;3.08;;
34019;SDS011;20895;51.034;3.742;2022-07-06T14:39:06;9.05;;;3.78;;
34019;SDS011;20895;51.034;3.742;2022-07-06T14:41:32;6.55;;;3.00;;
34019;SDS011;20895;51.034;3.742;2022-07-06T14:43:57;9.43;;;3.10;;
34019;SDS011;20895;51.034;3.742;2022-07-06T14:46:22;9.45;;;3.47;;
34019;SDS011;20895;51.034;3.742;2022-07-06T14:48:48;8.68;;;2.90;;
34019;SDS011;20895;51.034;3.742;2022-07-06T14:51:13;6.60;;;2.92;;
34019;SDS011;20895;51.034;3.742;2022-07-06T14:53:38;8.20;;;3.40;;
34019;SDS011;20895;51.034;3.742;2022-07-06T14:56:04;8.45;;;2.95;;